Andover, Illinois
Current Conditions -  °F | °C
As of 10:52 AM on Thursday 18 Dec 2014 (Local Time) from KMLI Reporting Station
Broken Clouds Broken Clouds  
Wind Chill: 25°   Ceiling: 9000
Heat Index: 25°   Visibility: 9mi
Dew Point: 18°   Wind: 0mph
Humidity: 75%   Direction: NA
Pressure: 30.3"   Gusts: NA
Location:  41.29°N, 90.29°W
Report Text: KMLI 181652Z 00000KT 9SM BKN090 M04/M08 A3030 RMK AO2 SLP270 T10391078
Loading
Personal Weather Stations






























Interactive Weather Map New forecast layout! Learn more

10-Day Weather Forecast

Advertisements
Track Severe Weather on mobile